Time;durP1;ratioP1;P1;durP2;ratioP2;P2;SDS_P1;SDS_P2;PMS_P1;PMS_P2;Temp;Humidity;BMP_temperature;BMP_pressure;BME280_temperature;BME280_humidity;BME280_pressure;Samples;Min_cycle;Max_cycle;Signal;HPM_P1;HPM_P2
2021/12/26 00:01:43;;;;;;;7.07;2.35;;;-5.10;76.70;;;;;;4186421;28;20076;-70
2021/12/26 00:03:44;;;;;;;6.65;2.53;;;-5.10;76.80;;;;;;4172092;28;20024;-70
2021/12/26 00:05:44;;;;;;;8.23;2.00;;;-5.10;76.90;;;;;;4194320;28;20107;-71
2021/12/26 00:07:45;;;;;;;10.38;2.28;;;-5.10;76.90;;;;;;4185086;28;20484;-71
2021/12/26 00:09:46;;;;;;;8.68;1.95;;;-5.10;77.00;;;;;;4166340;28;20109;-71
2021/12/26 00:11:46;;;;;;;9.18;2.20;;;-5.10;77.00;;;;;;4189706;28;20028;-71
2021/12/26 00:13:50;;;;;;;5.57;2.35;;;-5.10;77.10;;;;;;4183707;28;20052;-69
2021/12/26 00:15:50;;;;;;;7.63;2.58;;;-5.10;77.10;;;;;;4188618;28;20527;-69
2021/12/26 00:17:51;;;;;;;5.60;1.95;;;-5.10;77.10;;;;;;4154872;28;20073;-69
2021/12/26 00:19:52;;;;;;;5.40;1.65;;;-5.10;77.10;;;;;;4187778;28;20690;-69
2021/12/26 00:21:52;;;;;;;9.18;2.85;;;-5.10;77.30;;;;;;4149431;28;20028;-70
2021/12/26 00:23:55;;;;;;;10.35;2.05;;;-5.10;77.30;;;;;;4169724;28;20028;-70
2021/12/26 00:25:56;;;;;;;11.45;2.30;;;-5.10;77.40;;;;;;4170562;28;20025;-70
2021/12/26 00:27:56;;;;;;;6.93;2.33;;;-5.10;77.50;;;;;;4181917;28;20525;-70
2021/12/26 00:29:57;;;;;;;11.82;2.72;;;-5.10;77.50;;;;;;4185454;28;20638;-70
2021/12/26 00:31:57;;;;;;;8.93;2.22;;;-5.10;77.50;;;;;;4188112;28;20403;-70
2021/12/26 00:33:58;;;;;;;5.78;2.25;;;-5.10;77.50;;;;;;4165121;28;20033;-70
2021/12/26 00:36:00;;;;;;;9.75;2.50;;;-5.10;77.50;;;;;;4189475;28;20036;-70
2021/12/26 00:38:01;;;;;;;6.38;2.42;;;-5.10;77.40;;;;;;4184693;28;20574;-70
2021/12/26 00:40:02;;;;;;;4.38;1.90;;;-5.10;77.50;;;;;;4170575;28;20029;-70
2021/12/26 00:42:03;;;;;;;8.70;2.35;;;-5.10;77.50;;;;;;4187503;28;20400;-71
2021/12/26 00:44:04;;;;;;;4.93;2.20;;;-5.10;77.50;;;;;;4150300;28;20155;-70
2021/12/26 00:46:04;;;;;;;4.38;2.28;;;-5.10;77.70;;;;;;4188647;28;20434;-70
2021/12/26 00:48:07;;;;;;;6.35;2.72;;;-5.10;77.60;;;;;;4188090;28;20044;-70
2021/12/26 00:50:09;;;;;;;6.90;2.30;;;-5.10;77.60;;;;;;4168159;28;20029;-69
2021/12/26 00:52:09;;;;;;;8.68;2.30;;;-5.10;77.60;;;;;;4182402;28;20049;-70
2021/12/26 00:54:10;;;;;;;6.93;2.30;;;-5.10;77.60;;;;;;4170531;28;20150;-70
2021/12/26 00:56:11;;;;;;;7.40;2.25;;;-5.10;77.60;;;;;;4188275;28;21261;-70
2021/12/26 00:58:11;;;;;;;10.50;2.10;;;-5.10;78.20;;;;;;4185032;28;20123;-69
2021/12/26 01:00:20;;;;;;;9.70;2.40;;;-5.10;77.40;;;;;;4185192;28;20036;-70
2021/12/26 01:02:21;;;;;;;5.45;2.08;;;-5.10;77.30;;;;;;4152512;28;20036;-69
2021/12/26 01:04:21;;;;;;;4.70;2.03;;;-5.10;77.20;;;;;;4185353;28;20056;-69
2021/12/26 01:06:23;;;;;;;4.65;2.20;;;-5.10;77.90;;;;;;4187907;28;20075;-69
2021/12/26 01:08:27;;;;;;;5.00;1.90;;;-5.10;77.10;;;;;;4188225;28;20026;-69
2021/12/26 01:10:43;;;;;;;6.22;1.90;;;-5.10;77.10;;;;;;4189710;28;20017;-69
2021/12/26 01:12:43;;;;;;;5.25;2.00;;;-5.10;77.10;;;;;;4144480;28;20022;-70
2021/12/26 01:14:52;;;;;;;11.38;1.52;;;-5.10;77.10;;;;;;4167240;28;20025;-70
2021/12/26 01:17:03;;;;;;;3.70;1.42;;;-5.20;77.20;;;;;;4186958;28;20031;-70
2021/12/26 01:19:12;;;;;;;6.53;1.73;;;-5.10;77.40;;;;;;4167954;28;20063;-70
2021/12/26 01:21:18;;;;;;;3.90;1.88;;;-5.10;77.50;;;;;;4157016;28;20124;-71
2021/12/26 01:23:20;;;;;;;5.13;2.10;;;-5.10;77.60;;;;;;4167438;28;20033;-70
2021/12/26 01:25:21;;;;;;;4.63;1.73;;;-5.10;77.70;;;;;;4152092;28;20028;-69
2021/12/26 01:27:23;;;;;;;8.88;2.20;;;-5.10;77.70;;;;;;4185605;28;20052;-69
2021/12/26 01:29:24;;;;;;;6.22;2.28;;;-5.10;77.60;;;;;;4166403;28;20071;-69
2021/12/26 01:31:24;;;;;;;6.65;1.92;;;-5.10;77.70;;;;;;4184640;28;20024;-69
2021/12/26 01:33:25;;;;;;;7.85;2.22;;;-5.20;77.60;;;;;;4166389;28;20555;-69
2021/12/26 01:35:26;;;;;;;4.53;2.20;;;-5.10;77.70;;;;;;4181938;28;20028;-69
2021/12/26 01:37:27;;;;;;;7.75;2.20;;;-5.10;77.60;;;;;;4186358;28;20381;-69
2021/12/26 01:39:27;;;;;;;4.30;2.15;;;-5.10;77.70;;;;;;4185061;28;20078;-69
2021/12/26 01:41:28;;;;;;;4.65;1.83;;;-5.10;77.60;;;;;;4170361;28;20627;-69
2021/12/26 01:43:30;;;;;;;4.00;1.73;;;-5.10;77.60;;;;;;4166033;28;20029;-70
2021/12/26 01:45:31;;;;;;;5.95;1.77;;;-5.10;77.50;;;;;;4188321;28;20054;-69
2021/12/26 01:47:31;;;;;;;6.35;1.80;;;-5.10;77.40;;;;;;4168679;28;20033;-70
2021/12/26 01:49:32;;;;;;;8.35;2.05;;;-5.10;77.50;;;;;;4165822;28;20040;-69
2021/12/26 01:51:33;;;;;;;5.10;1.75;;;-5.20;77.40;;;;;;4185986;28;20051;-69
2021/12/26 01:53:38;;;;;;;12.27;2.00;;;-5.20;77.50;;;;;;4186225;28;20103;-70
2021/12/26 01:55:44;;;;;;;6.43;1.75;;;-5.10;77.50;;;;;;4170703;28;20147;-69
2021/12/26 01:57:45;;;;;;;4.22;1.60;;;-5.20;77.50;;;;;;4186958;28;20489;-69
2021/12/26 01:59:47;;;;;;;10.05;2.08;;;-5.20;77.50;;;;;;4167560;28;20056;-70
2021/12/26 02:01:47;;;;;;;7.28;2.00;;;-5.10;77.60;;;;;;4186735;28;20032;-70
2021/12/26 02:03:48;;;;;;;4.65;1.50;;;-5.10;77.50;;;;;;4167720;28;20104;-71
2021/12/26 02:05:48;;;;;;;10.55;2.03;;;-5.10;77.50;;;;;;4168966;28;20029;-71
2021/12/26 02:07:49;;;;;;;10.63;1.98;;;-5.10;77.40;;;;;;4200761;28;20081;-71
2021/12/26 02:09:50;;;;;;;6.10;1.70;;;-5.10;77.40;;;;;;4183055;28;20033;-71
2021/12/26 02:11:50;;;;;;;3.13;1.73;;;-5.10;77.30;;;;;;4165334;28;20795;-71
2021/12/26 02:13:51;;;;;;;4.30;1.58;;;-5.10;77.10;;;;;;4176604;28;20040;-70
2021/12/26 02:15:52;;;;;;;5.28;1.80;;;-5.10;77.00;;;;;;4169619;28;20120;-70
2021/12/26 02:17:52;;;;;;;5.55;1.90;;;-5.10;76.90;;;;;;4174390;28;20183;-69
2021/12/26 02:19:57;;;;;;;4.20;1.88;;;-5.10;76.80;;;;;;4200439;23;20649;-69
2021/12/26 02:24:26;;;;;;;7.38;2.08;;;-5.10;77.10;;;;;;4186675;28;20061;-69
2021/12/26 02:28:46;;;;;;;3.70;1.75;;;-5.20;75.90;;;;;;4183126;28;20416;-70
2021/12/26 02:30:47;;;;;;;4.60;1.75;;;-5.20;75.70;;;;;;4169593;28;20076;-69
2021/12/26 02:32:49;;;;;;;7.65;2.08;;;-5.20;75.50;;;;;;4169000;28;20130;-69
2021/12/26 02:34:50;;;;;;;4.78;1.67;;;-5.20;75.40;;;;;;4186380;28;20028;-70
2021/12/26 02:36:50;;;;;;;4.28;1.73;;;-5.30;75.20;;;;;;4181505;28;20033;-69
2021/12/26 02:38:51;;;;;;;6.95;2.03;;;-5.30;75.10;;;;;;4182251;28;20036;-70
2021/12/26 02:40:53;;;;;;;5.85;2.45;;;-5.30;75.00;;;;;;4184822;28;20037;-69
2021/12/26 02:42:53;;;;;;;3.80;1.67;;;-5.30;74.90;;;;;;4180429;28;20036;-69
2021/12/26 02:44:54;;;;;;;4.78;1.77;;;-5.40;74.70;;;;;;4187318;28;20055;-70
2021/12/26 02:46:54;;;;;;;3.88;1.80;;;-5.40;74.60;;;;;;4186828;28;20028;-69
2021/12/26 02:48:55;;;;;;;4.85;1.55;;;-5.40;74.50;;;;;;4184626;28;20411;-70
2021/12/26 02:50:57;;;;;;;8.52;2.00;;;-5.40;74.40;;;;;;4182616;28;20056;-69
2021/12/26 02:53:00;;;;;;;4.25;2.33;;;-5.40;74.30;;;;;;4181709;28;20016;-69
2021/12/26 02:55:00;;;;;;;5.25;1.92;;;-5.40;74.20;;;;;;4184772;28;20052;-69
2021/12/26 02:57:01;;;;;;;8.05;1.90;;;-5.50;73.90;;;;;;4181451;28;20033;-68
2021/12/26 02:59:01;;;;;;;4.45;2.10;;;-5.50;73.70;;;;;;4182305;28;20032;-68
2021/12/26 03:01:29;;;;;;;7.68;1.90;;;-5.50;73.60;;;;;;4184671;28;20104;-70
2021/12/26 03:03:30;;;;;;;6.53;1.95;;;-5.50;73.40;;;;;;4181956;28;22049;-69
2021/12/26 03:05:33;;;;;;;8.27;2.38;;;-5.60;73.30;;;;;;4181666;28;20040;-69
2021/12/26 03:07:33;;;;;;;4.72;1.63;;;-5.60;73.30;;;;;;4166528;28;20037;-69
2021/12/26 03:09:44;;;;;;;10.23;2.15;;;-5.60;73.20;;;;;;4185659;28;20029;-69
2021/12/26 03:11:46;;;;;;;6.00;2.17;;;-5.60;73.10;;;;;;4184384;28;20017;-69
2021/12/26 03:13:47;;;;;;;6.88;2.25;;;-5.70;73.00;;;;;;4183154;28;20039;-70
2021/12/26 03:15:48;;;;;;;6.28;2.30;;;-5.70;72.90;;;;;;4187231;28;20040;-70
2021/12/26 03:17:48;;;;;;;9.90;2.78;;;-5.70;72.80;;;;;;4181676;28;20474;-69
2021/12/26 03:19:49;;;;;;;4.13;1.70;;;-5.70;73.00;;;;;;4183135;28;20035;-70
2021/12/26 03:21:51;;;;;;;7.50;2.55;;;-5.70;73.00;;;;;;4187035;28;20349;-70
2021/12/26 03:23:51;;;;;;;7.28;2.47;;;-5.80;73.00;;;;;;4180764;28;20036;-69
2021/12/26 03:26:00;;;;;;;5.13;2.25;;;-5.80;73.00;;;;;;4185613;28;20021;-70
2021/12/26 03:28:02;;;;;;;5.93;2.38;;;-5.80;73.00;;;;;;4180601;28;20029;-70
2021/12/26 03:30:06;;;;;;;5.55;2.38;;;-5.80;73.00;;;;;;4183647;28;20048;-70
2021/12/26 03:32:08;;;;;;;9.60;2.35;;;-5.80;73.00;;;;;;4180740;28;20040;-70
2021/12/26 03:34:08;;;;;;;6.20;2.60;;;-5.80;72.90;;;;;;4184663;28;20032;-69
2021/12/26 03:36:09;;;;;;;5.00;2.28;;;-5.80;72.90;;;;;;4182998;28;20036;-70
2021/12/26 03:38:10;;;;;;;4.95;1.95;;;-5.80;73.00;;;;;;4180909;28;20037;-70
2021/12/26 03:40:11;;;;;;;8.88;2.35;;;-5.80;72.80;;;;;;4183425;28;20711;-70
2021/12/26 03:42:13;;;;;;;3.95;2.20;;;-5.80;72.70;;;;;;4184190;28;20033;-69
2021/12/26 03:44:14;;;;;;;5.78;2.33;;;-5.80;72.60;;;;;;4183521;28;20033;-70
2021/12/26 03:46:14;;;;;;;4.75;2.13;;;-5.80;72.50;;;;;;4185971;28;20348;-69
2021/12/26 03:48:16;;;;;;;4.32;2.13;;;-5.80;72.40;;;;;;4185951;28;20373;-70
2021/12/26 03:50:19;;;;;;;8.68;2.08;;;-5.80;72.20;;;;;;4184900;28;20037;-70
2021/12/26 03:52:22;;;;;;;7.22;2.42;;;-5.80;72.10;;;;;;4182298;28;20025;-69
2021/12/26 03:54:22;;;;;;;4.45;2.22;;;-5.80;72.00;;;;;;4183114;28;20033;-70
2021/12/26 03:56:23;;;;;;;6.22;2.30;;;-5.80;71.90;;;;;;4184535;28;20040;-70
2021/12/26 03:58:23;;;;;;;5.80;2.20;;;-5.90;71.80;;;;;;4178649;28;20045;-70
2021/12/26 04:00:25;;;;;;;11.63;2.45;;;-5.90;71.70;;;;;;4180776;28;20044;-70
2021/12/26 04:02:25;;;;;;;10.43;2.55;;;-5.90;71.60;;;;;;4181123;28;20445;-71
2021/12/26 04:04:26;;;;;;;6.95;2.15;;;-5.90;71.50;;;;;;4176909;28;20031;-69
2021/12/26 04:06:27;;;;;;;7.03;2.40;;;-5.90;71.50;;;;;;4179589;28;20021;-69
2021/12/26 04:08:27;;;;;;;7.65;2.30;;;-5.90;71.40;;;;;;4181051;28;20065;-68
2021/12/26 04:10:28;;;;;;;5.55;2.03;;;-5.90;71.30;;;;;;4181376;28;21259;-68
2021/12/26 04:12:35;;;;;;;3.97;2.20;;;-5.90;71.20;;;;;;4182349;28;20120;-68
2021/12/26 04:14:35;;;;;;;5.70;2.08;;;-5.90;71.00;;;;;;4175548;28;20561;-68
2021/12/26 04:16:36;;;;;;;11.82;2.33;;;-5.90;70.80;;;;;;4177210;28;20479;-68
2021/12/26 04:18:37;;;;;;;3.80;1.88;;;-5.90;70.70;;;;;;4178504;28;20100;-68
2021/12/26 04:20:38;;;;;;;3.95;2.15;;;-5.90;70.50;;;;;;4176584;28;20335;-68
2021/12/26 04:22:39;;;;;;;8.98;2.28;;;-5.90;70.40;;;;;;4179601;28;20049;-68
2021/12/26 04:24:40;;;;;;;6.15;1.83;;;-6.00;70.20;;;;;;4175515;28;22853;-68
2021/12/26 04:26:40;;;;;;;2.78;1.63;;;-6.00;70.00;;;;;;4181163;28;20023;-68
2021/12/26 04:28:41;;;;;;;4.70;2.28;;;-6.00;69.90;;;;;;4176345;28;20423;-68
2021/12/26 04:30:42;;;;;;;10.13;1.90;;;-6.00;69.80;;;;;;4178912;28;20110;-68
2021/12/26 04:32:42;;;;;;;5.35;2.10;;;-6.10;69.60;;;;;;4181425;28;20634;-68
2021/12/26 04:34:43;;;;;;;4.95;1.85;;;-6.10;69.60;;;;;;4178330;28;20025;-68
2021/12/26 04:36:44;;;;;;;3.67;2.15;;;-6.10;69.80;;;;;;4178192;28;20025;-67
2021/12/26 04:38:45;;;;;;;6.10;2.03;;;-6.10;69.80;;;;;;4178818;28;20032;-68
2021/12/26 04:40:45;;;;;;;7.65;2.20;;;-6.10;69.80;;;;;;4177439;28;20549;-68
2021/12/26 04:42:47;;;;;;;10.32;2.42;;;-6.10;69.90;;;;;;4179311;28;20103;-68
2021/12/26 04:44:49;;;;;;;4.22;2.10;;;-6.10;69.90;;;;;;4179086;28;20202;-68
2021/12/26 04:46:50;;;;;;;3.55;1.85;;;-6.10;70.00;;;;;;4177278;28;20025;-68
2021/12/26 04:48:51;;;;;;;5.43;1.90;;;-6.10;70.00;;;;;;4178644;28;20106;-68
2021/12/26 04:50:52;;;;;;;9.57;2.22;;;-6.10;70.00;;;;;;4178194;28;20033;-68
2021/12/26 04:52:52;;;;;;;6.05;1.90;;;-6.10;70.00;;;;;;4175648;28;20043;-67
2021/12/26 04:54:53;;;;;;;4.47;1.80;;;-6.10;69.90;;;;;;4180128;28;20047;-68
2021/12/26 04:56:54;;;;;;;3.42;1.55;;;-6.10;69.90;;;;;;4179780;28;21235;-68
2021/12/26 04:58:54;;;;;;;4.40;1.83;;;-6.10;69.80;;;;;;4175496;28;20559;-67
2021/12/26 05:00:55;;;;;;;3.28;1.63;;;-6.10;69.60;;;;;;4181486;28;20578;-68
2021/12/26 05:02:56;;;;;;;6.57;1.45;;;-6.10;69.40;;;;;;4179641;28;20840;-68
2021/12/26 05:04:57;;;;;;;3.58;1.80;;;-6.10;69.20;;;;;;4178872;28;20082;-68
2021/12/26 05:06:58;;;;;;;15.20;1.98;;;-6.10;69.10;;;;;;4179282;28;20028;-68
2021/12/26 05:08:58;;;;;;;5.10;1.48;;;-6.10;69.00;;;;;;4179000;28;20147;-68
2021/12/26 05:10:59;;;;;;;5.03;1.90;;;-6.00;68.80;;;;;;4181769;28;20066;-68
2021/12/26 05:13:00;;;;;;;5.78;1.85;;;-6.00;68.60;;;;;;4180585;28;20045;-67
2021/12/26 05:15:03;;;;;;;7.00;1.70;;;-6.10;68.30;;;;;;4180230;28;20039;-68
2021/12/26 05:17:04;;;;;;;5.97;1.83;;;-6.10;68.10;;;;;;4183900;28;20032;-68
2021/12/26 05:19:04;;;;;;;5.68;1.75;;;-6.10;67.90;;;;;;4180155;28;20108;-68
2021/12/26 05:21:05;;;;;;;5.18;2.00;;;-6.10;67.70;;;;;;4176184;28;20396;-68
2021/12/26 05:23:06;;;;;;;3.33;1.70;;;-6.10;67.70;;;;;;4181995;28;20064;-67
2021/12/26 05:25:07;;;;;;;7.78;2.10;;;-6.10;67.50;;;;;;4182439;28;20027;-68
2021/12/26 05:27:08;;;;;;;6.00;1.85;;;-6.10;67.30;;;;;;4163144;28;20299;-68
2021/12/26 05:29:08;;;;;;;4.63;1.88;;;-6.10;67.20;;;;;;4180458;28;20064;-67
2021/12/26 05:31:09;;;;;;;6.00;1.80;;;-6.20;67.10;;;;;;4180169;28;20068;-68
2021/12/26 05:33:09;;;;;;;3.85;1.48;;;-6.20;67.00;;;;;;4179602;28;20383;-67
2021/12/26 05:35:11;;;;;;;7.65;2.13;;;-6.20;67.00;;;;;;4184225;28;20033;-67
2021/12/26 05:37:11;;;;;;;5.70;1.70;;;-6.20;67.00;;;;;;4177438;28;20037;-68
2021/12/26 05:39:12;;;;;;;4.53;1.80;;;-6.20;67.00;;;;;;4176551;28;20614;-68
2021/12/26 05:41:12;;;;;;;3.78;1.65;;;-6.30;66.90;;;;;;4181525;28;20056;-68
2021/12/26 05:43:13;;;;;;;4.05;1.63;;;-6.30;66.90;;;;;;4181022;28;20037;-67
2021/12/26 05:45:14;;;;;;;6.72;1.50;;;-6.30;66.90;;;;;;4181889;28;20097;-67
2021/12/26 05:47:14;;;;;;;4.13;1.77;;;-6.30;66.90;;;;;;4180942;28;20032;-68
2021/12/26 05:49:15;;;;;;;5.50;1.70;;;-6.30;66.90;;;;;;4182950;28;20369;-68
2021/12/26 05:51:16;;;;;;;5.07;1.75;;;-6.30;66.90;;;;;;4185798;28;20036;-68
2021/12/26 05:53:16;;;;;;;8.48;2.10;;;-6.40;66.70;;;;;;4182351;28;20047;-68
2021/12/26 05:55:17;;;;;;;6.60;2.08;;;-6.40;66.70;;;;;;4181066;28;20024;-68
2021/12/26 05:57:18;;;;;;;8.73;1.88;;;-6.40;66.70;;;;;;4151962;28;20573;-68
2021/12/26 05:59:19;;;;;;;3.15;1.95;;;-6.40;66.70;;;;;;4183539;28;20033;-67
2021/12/26 06:01:19;;;;;;;3.97;1.70;;;-6.50;66.60;;;;;;4183804;28;20089;-69
2021/12/26 06:03:20;;;;;;;10.68;2.00;;;-6.50;66.60;;;;;;4183293;28;20648;-69
2021/12/26 06:05:21;;;;;;;3.03;1.58;;;-6.50;66.70;;;;;;4185365;28;20094;-70
2021/12/26 06:07:21;;;;;;;7.25;1.80;;;-6.60;66.70;;;;;;4180279;28;20024;-69
2021/12/26 06:09:22;;;;;;;7.68;1.83;;;-6.60;66.80;;;;;;4183760;28;20051;-70
2021/12/26 06:11:23;;;;;;;8.63;2.10;;;-6.70;66.60;;;;;;4181850;28;20083;-70
2021/12/26 06:13:23;;;;;;;3.00;1.52;;;-6.70;66.70;;;;;;4182448;28;20028;-70
2021/12/26 06:15:24;;;;;;;3.92;1.70;;;-6.70;66.80;;;;;;4188181;28;20040;-70
2021/12/26 06:17:25;;;;;;;10.60;2.40;;;-6.70;66.90;;;;;;4182743;28;20095;-70
2021/12/26 06:19:25;;;;;;;3.45;1.73;;;-6.80;66.90;;;;;;4176401;28;20056;-69
2021/12/26 06:21:26;;;;;;;4.63;1.95;;;-6.80;67.00;;;;;;4179468;28;20087;-70
2021/12/26 06:23:27;;;;;;;6.07;2.25;;;-6.80;67.00;;;;;;4182558;28;20033;-70
2021/12/26 06:25:28;;;;;;;4.07;1.70;;;-6.80;67.10;;;;;;4183418;28;20047;-71
2021/12/26 06:27:28;;;;;;;3.67;1.60;;;-6.90;67.20;;;;;;4183231;28;20029;-70
2021/12/26 06:29:29;;;;;;;4.10;1.98;;;-6.80;67.30;;;;;;4182249;28;20055;-70
2021/12/26 06:31:30;;;;;;;6.40;1.95;;;-6.80;67.40;;;;;;4178578;28;20523;-70
2021/12/26 06:33:30;;;;;;;4.10;1.90;;;-6.80;67.60;;;;;;4182046;28;20101;-70
2021/12/26 06:35:31;;;;;;;3.25;1.58;;;-6.80;67.60;;;;;;4186492;28;20056;-69
2021/12/26 06:37:31;;;;;;;7.10;1.88;;;-6.80;67.70;;;;;;4182945;28;20190;-70
2021/12/26 06:39:32;;;;;;;4.28;2.05;;;-6.80;67.70;;;;;;4182652;28;20492;-69
2021/12/26 06:41:33;;;;;;;13.32;3.28;;;-6.80;67.60;;;;;;4184221;28;20458;-70
2021/12/26 06:43:34;;;;;;;4.55;1.77;;;-6.80;67.60;;;;;;4179666;28;20029;-70
2021/12/26 06:45:35;;;;;;;3.40;1.63;;;-6.80;67.70;;;;;;4185044;28;20106;-69
2021/12/26 06:47:36;;;;;;;4.03;2.20;;;-6.80;67.70;;;;;;4187558;28;20232;-69
2021/12/26 06:49:37;;;;;;;7.47;2.47;;;-6.80;67.80;;;;;;4183423;28;20103;-70
2021/12/26 06:51:38;;;;;;;3.65;1.67;;;-6.80;67.80;;;;;;4181503;28;20326;-69
2021/12/26 06:53:38;;;;;;;7.32;2.80;;;-6.80;67.80;;;;;;4186382;28;20082;-69
2021/12/26 06:55:39;;;;;;;4.70;2.20;;;-6.80;67.90;;;;;;4183694;28;20082;-69
2021/12/26 06:57:40;;;;;;;54.75;18.85;;;-6.80;67.90;;;;;;4184487;28;20102;-69
2021/12/26 06:59:41;;;;;;;29.52;10.38;;;-6.80;68.00;;;;;;4183863;28;20119;-69
2021/12/26 07:01:41;;;;;;;22.95;7.85;;;-6.80;67.90;;;;;;4182639;28;20056;-70
2021/12/26 07:03:42;;;;;;;13.10;4.03;;;-6.80;67.90;;;;;;4184696;28;20040;-70
2021/12/26 07:05:43;;;;;;;9.27;3.63;;;-6.90;67.80;;;;;;4185844;28;20020;-70
2021/12/26 07:07:43;;;;;;;14.55;5.18;;;-6.90;67.70;;;;;;4181440;28;20029;-69
2021/12/26 07:09:44;;;;;;;14.85;5.38;;;-6.90;67.70;;;;;;4182961;28;20037;-70
2021/12/26 07:11:45;;;;;;;7.80;2.83;;;-6.90;67.70;;;;;;4179204;28;20032;-69
2021/12/26 07:13:45;;;;;;;6.55;2.65;;;-6.90;67.60;;;;;;4184348;28;20381;-68
2021/12/26 07:15:46;;;;;;;6.15;2.58;;;-6.90;67.60;;;;;;4185815;28;20028;-68
2021/12/26 07:17:46;;;;;;;7.28;2.63;;;-6.90;67.60;;;;;;4179416;28;20103;-68
2021/12/26 07:19:47;;;;;;;10.13;2.90;;;-6.90;67.60;;;;;;4174911;28;20041;-70
2021/12/26 07:21:48;;;;;;;6.88;2.65;;;-6.90;67.60;;;;;;4177918;28;20028;-69
2021/12/26 07:23:48;;;;;;;8.55;3.58;;;-6.90;67.60;;;;;;4175586;28;20105;-71
2021/12/26 07:25:49;;;;;;;12.25;6.13;;;-6.90;67.50;;;;;;4151579;28;20029;-72
2021/12/26 07:27:50;;;;;;;13.32;5.22;;;-6.90;67.50;;;;;;4179860;28;20510;-72
2021/12/26 07:29:50;;;;;;;13.45;4.10;;;-6.90;67.50;;;;;;4165503;28;20033;-72
2021/12/26 07:31:51;;;;;;;6.50;3.40;;;-7.00;67.40;;;;;;4180506;28;20115;-72
2021/12/26 07:33:51;;;;;;;10.63;3.85;;;-6.90;67.40;;;;;;4181814;28;20485;-72
2021/12/26 07:35:52;;;;;;;6.45;2.92;;;-6.90;67.30;;;;;;4184565;28;20033;-72
2021/12/26 07:37:53;;;;;;;6.65;2.28;;;-7.00;67.20;;;;;;4181815;28;20294;-71
2021/12/26 07:39:54;;;;;;;17.17;2.90;;;-6.90;67.20;;;;;;4183862;28;20040;-72
2021/12/26 07:41:55;;;;;;;4.65;2.45;;;-7.00;67.10;;;;;;4166304;28;20356;-72
2021/12/26 07:43:56;;;;;;;5.57;2.58;;;-6.90;67.10;;;;;;4179873;28;20504;-71
2021/12/26 07:45:57;;;;;;;4.85;2.30;;;-7.00;67.00;;;;;;4180277;28;20037;-72
2021/12/26 07:47:57;;;;;;;4.80;2.20;;;-7.00;66.90;;;;;;4166267;28;20063;-72
2021/12/26 07:49:58;;;;;;;7.68;2.67;;;-7.00;66.90;;;;;;4182986;28;20445;-72
2021/12/26 07:51:59;;;;;;;4.88;2.38;;;-7.00;66.90;;;;;;4182806;28;20450;-72
2021/12/26 07:54:01;;;;;;;4.75;1.95;;;-7.00;66.90;;;;;;4179554;28;20056;-72
2021/12/26 07:56:02;;;;;;;4.72;2.33;;;-7.00;67.00;;;;;;4182046;28;20434;-72
2021/12/26 07:58:03;;;;;;;6.10;2.40;;;-7.00;66.90;;;;;;4177876;28;20154;-72
2021/12/26 08:00:05;;;;;;;5.35;2.65;;;-7.10;66.80;;;;;;4177143;28;20032;-71
2021/12/26 08:02:06;;;;;;;4.88;2.22;;;-7.10;66.80;;;;;;4178501;28;20032;-72
2021/12/26 08:04:11;;;;;;;9.15;2.67;;;-7.10;66.80;;;;;;4180320;28;20035;-72
2021/12/26 08:06:16;;;;;;;8.10;3.03;;;-7.10;66.80;;;;;;4182243;28;20024;-71
2021/12/26 08:08:17;;;;;;;7.72;2.88;;;-7.10;66.90;;;;;;4165113;28;20032;-71
2021/12/26 08:10:17;;;;;;;9.55;3.03;;;-7.10;66.90;;;;;;4181933;28;20032;-72
2021/12/26 08:12:18;;;;;;;3.47;2.22;;;-7.10;66.90;;;;;;4168356;28;20079;-72
2021/12/26 08:14:19;;;;;;;10.00;3.13;;;-7.10;67.00;;;;;;4183474;28;20037;-72
2021/12/26 08:16:19;;;;;;;6.15;2.70;;;-7.10;67.00;;;;;;4180012;28;20055;-72
2021/12/26 08:18:20;;;;;;;11.60;2.78;;;-7.10;67.10;;;;;;4178356;28;20035;-72
2021/12/26 08:20:21;;;;;;;6.68;2.75;;;-7.10;67.10;;;;;;4181547;28;20557;-72
2021/12/26 08:22:22;;;;;;;8.57;2.95;;;-7.00;67.10;;;;;;4167451;28;20505;-72
2021/12/26 08:24:25;;;;;;;6.50;2.63;;;-7.00;67.20;;;;;;4180951;28;20103;-72
2021/12/26 08:26:25;;;;;;;;;;;-7.10;67.10;;;;;;4178861;28;20035;-72
2021/12/26 08:28:26;;;;;;;9.68;3.42;;;-7.00;67.20;;;;;;4175576;28;20399;-72
2021/12/26 08:30:27;;;;;;;8.02;2.80;;;-7.00;67.20;;;;;;4178307;28;20043;-72
2021/12/26 08:32:30;;;;;;;9.40;3.08;;;-7.00;67.30;;;;;;4186553;28;20044;-72
2021/12/26 08:34:31;;;;;;;9.23;3.42;;;-7.00;67.30;;;;;;4179276;28;20056;-72
2021/12/26 08:36:32;;;;;;;9.05;2.95;;;-7.00;67.30;;;;;;4176048;28;20515;-71
2021/12/26 08:38:33;;;;;;;7.47;3.08;;;-6.90;67.40;;;;;;4180432;28;20028;-72
2021/12/26 08:40:35;;;;;;;9.00;3.78;;;-6.90;67.50;;;;;;4176717;28;20132;-72
2021/12/26 08:44:39;;;;;;;8.90;3.15;;;-6.80;67.50;;;;;;4154025;28;20052;-73
2021/12/26 08:46:41;;;;;;;12.55;3.33;;;-6.80;67.40;;;;;;4166696;28;20016;-73
2021/12/26 08:48:42;;;;;;;10.15;3.80;;;-6.80;67.40;;;;;;4152430;28;20029;-73
2021/12/26 08:50:43;;;;;;;13.88;3.42;;;-6.70;67.40;;;;;;4156588;28;20083;-73
2021/12/26 08:52:43;;;;;;;10.48;3.08;;;-6.70;67.30;;;;;;4159910;28;20040;-71
2021/12/26 08:54:44;;;;;;;11.25;4.13;;;-6.70;67.30;;;;;;4157336;28;20029;-72
2021/12/26 08:56:45;;;;;;;13.52;3.28;;;-6.60;67.40;;;;;;4158211;28;20408;-71
2021/12/26 08:58:46;;;;;;;16.25;3.35;;;-6.60;67.40;;;;;;4156615;28;20025;-71
2021/12/26 09:00:46;;;;;;;8.45;3.08;;;-6.60;67.20;;;;;;4156628;28;20022;-72
2021/12/26 09:02:48;;;;;;;5.05;2.65;;;-6.50;67.20;;;;;;4158757;28;20479;-72
2021/12/26 09:04:49;;;;;;;9.35;2.40;;;-6.50;67.20;;;;;;4153138;28;20028;-70
2021/12/26 09:06:51;;;;;;;10.15;2.90;;;-6.50;67.10;;;;;;4156682;28;20465;-70
2021/12/26 09:08:52;;;;;;;7.78;2.33;;;-6.40;67.00;;;;;;4185819;28;20747;-73
2021/12/26 09:10:55;;;;;;;4.70;2.15;;;-6.30;66.80;;;;;;4153277;28;20512;-72
2021/12/26 09:12:55;;;;;;;;;;;-6.30;66.50;;;;;;4136543;28;20037;-72
2021/12/26 09:14:56;;;;;;;5.70;2.13;;;-6.20;66.30;;;;;;4159629;28;20432;-73
2021/12/26 09:16:57;;;;;;;11.68;2.72;;;-6.20;66.30;;;;;;4158709;28;20484;-73
2021/12/26 09:18:58;;;;;;;5.55;1.77;;;-6.10;66.20;;;;;;4143826;28;20045;-69
2021/12/26 09:20:58;;;;;;;9.60;2.10;;;-6.00;65.90;;;;;;4159599;28;20448;-67
2021/12/26 09:22:59;;;;;;;4.65;1.92;;;-6.00;65.50;;;;;;4156571;28;20033;-64
2021/12/26 09:25:00;;;;;;;8.90;2.03;;;-5.90;65.30;;;;;;4164956;28;20041;-66
2021/12/26 09:27:00;;;;;;;4.25;1.77;;;-5.90;65.20;;;;;;4168664;28;20442;-67
2021/12/26 09:29:01;;;;;;;4.85;1.52;;;-5.80;65.20;;;;;;4157838;28;20017;-65
2021/12/26 09:31:03;;;;;;;5.93;1.98;;;-5.70;65.00;;;;;;4156778;28;20040;-65
2021/12/26 09:33:04;;;;;;;4.83;1.87;;;-5.60;64.90;;;;;;4159376;28;20155;-66
2021/12/26 09:35:05;;;;;;;10.25;2.25;;;-5.50;64.60;;;;;;4153082;28;20418;-67
2021/12/26 09:37:07;;;;;;;6.68;2.10;;;-5.40;64.70;;;;;;4158402;28;20150;-65
2021/12/26 09:39:08;;;;;;;4.47;1.70;;;-5.30;64.70;;;;;;4159532;28;20083;-65
2021/12/26 09:41:09;;;;;;;5.20;1.88;;;-5.30;64.50;;;;;;4159891;28;20034;-66
2021/12/26 09:43:09;;;;;;;7.20;1.80;;;-5.20;64.60;;;;;;4163053;28;20040;-67
2021/12/26 09:45:10;;;;;;;6.85;1.88;;;-5.10;64.30;;;;;;4183099;28;20051;-67
2021/12/26 09:47:11;;;;;;;5.85;2.08;;;-5.00;64.10;;;;;;4167772;28;20098;-67
2021/12/26 09:49:11;;;;;;;4.90;2.00;;;-5.00;63.90;;;;;;4176165;28;21125;-65
2021/12/26 09:51:13;;;;;;;5.78;1.98;;;-4.90;63.70;;;;;;4182518;28;20063;-67
2021/12/26 09:53:13;;;;;;;6.32;1.80;;;-4.80;63.80;;;;;;4176151;28;20028;-65
2021/12/26 09:55:14;;;;;;;6.75;1.50;;;-4.70;63.60;;;;;;4167615;28;20464;-66
2021/12/26 09:57:15;;;;;;;7.78;1.88;;;-4.70;63.50;;;;;;4174945;28;20024;-66
2021/12/26 09:59:18;;;;;;;7.70;1.30;;;-4.60;63.50;;;;;;4176565;28;20138;-66
2021/12/26 10:01:37;;;;;;;3.15;1.50;;;-4.50;63.30;;;;;;4180950;28;20111;-66
2021/12/26 10:03:38;;;;;;;5.70;1.60;;;-4.50;62.80;;;;;;4178027;28;20450;-66
2021/12/26 10:06:12;;;;;;;9.82;2.13;;;-4.40;62.70;;;;;;4178419;28;20491;-66
2021/12/26 10:08:12;;;;;;;8.93;1.90;;;-4.30;62.50;;;;;;4174381;28;20419;-67
2021/12/26 10:10:13;;;;;;;4.40;1.58;;;-4.20;62.30;;;;;;4178540;28;20037;-66
2021/12/26 10:12:14;;;;;;;4.78;1.65;;;-4.20;62.00;;;;;;4174822;28;20040;-66
2021/12/26 10:14:17;;;;;;;6.40;2.00;;;-4.10;61.60;;;;;;4176200;28;20117;-66
2021/12/26 10:16:19;;;;;;;5.13;1.67;;;-4.10;61.50;;;;;;4177339;28;20755;-66
2021/12/26 10:18:29;;;;;;;5.10;1.67;;;-4.00;61.20;;;;;;4177999;28;20035;-66
2021/12/26 10:20:34;;;;;;;6.10;1.70;;;-4.00;60.50;;;;;;4176926;28;20549;-65
2021/12/26 10:22:34;;;;;;;6.05;1.45;;;-3.90;60.50;;;;;;4177527;28;20025;-65
2021/12/26 10:24:40;;;;;;;4.93;1.80;;;-3.80;60.00;;;;;;4175848;28;20052;-66
2021/12/26 10:26:46;;;;;;;5.38;1.55;;;-3.80;59.90;;;;;;4175163;28;20055;-67
2021/12/26 10:29:20;;;;;;;12.02;1.77;;;-3.70;59.70;;;;;;4175423;28;20448;-65
2021/12/26 10:31:20;;;;;;;3.75;1.45;;;-3.70;59.30;;;;;;4175379;28;20119;-66
2021/12/26 10:33:21;;;;;;;6.18;1.98;;;-3.60;59.10;;;;;;4177027;28;20064;-66
2021/12/26 10:35:22;;;;;;;5.18;1.63;;;-3.60;58.80;;;;;;4169196;28;20111;-66
2021/12/26 10:37:30;;;;;;;3.40;1.48;;;-3.50;58.30;;;;;;4172860;28;20391;-67
2021/12/26 10:39:42;;;;;;;11.00;2.10;;;-3.50;57.70;;;;;;4176438;28;20097;-66